PWSweather.com
Personal Weather Stations
Station Observations
K4FB1
Clubhouse Heritage, Lakeland, FL 33812

Clubhouse HeritageLakeland, FL 33812

Lat: 27.969224, Lon: -81.897769

Elevation: 145

Station Type: Davis Vantage Pro2

http://www.ClubhouseWX.com

High Low Average
Temperature 88.3°F31.3°C 78.1°F25.6°C 81.3°F27.4°C
Dew Point 64.1°F17.8°C -28.2°F-33.4°C -7.5°F-21.9°C
Winds 11.0 mph 17.7 kmh 3.0 mph 4.8 kmh 6.0 mph SSE9.7 kmh SSE
Wind Gusts 22.0 mph35.4 kmh 6.0 mph9.7 kmh 13.0 mph20.9 kmh
Humidity 45% 0% 3%
Pressure 29.84 in1010.5 mb 29.76 in1007.8 mb -
Precipitation 0.24 in6.1 mm - -
Hour Temp Dew Point Humidity Winds Wind Gusts Pressure Precip Precip Rate Daily Precip Total
12:00 AM 79.9°F26.6°C -28.2°F-33.4°C 0% 3.0 mph SE4.8 kmh SE 8.0 mph12.9 kmh 29.85 in1010.8 mb 0.00 in0.0 mm 0.00 in0.0 mm 0.00 in0.0 mm
12:05 AM 79.8°F26.6°C -28.2°F-33.4°C 0% 3.0 mph SE4.8 kmh SE 8.0 mph12.9 kmh 29.85 in1010.8 mb 0.00 in0.0 mm 0.00 in0.0 mm 0.00 in0.0 mm
12:10 AM 79.8°F26.6°C -28.2°F-33.4°C 0% 3.0 mph SE4.8 kmh SE 8.0 mph12.9 kmh 29.85 in1010.8 mb 0.00 in0.0 mm 0.00 in0.0 mm 0.00 in0.0 mm
12:15 AM 79.8°F26.6°C -28.2°F-33.4°C 0% 4.0 mph SE6.4 kmh SE 8.0 mph12.9 kmh 29.84 in1010.5 mb 0.00 in0.0 mm 0.00 in0.0 mm 0.00 in0.0 mm
12:20 AM 79.7°F26.5°C -28.2°F-33.4°C 0% 4.0 mph SE6.4 kmh SE 8.0 mph12.9 kmh 29.84 in1010.5 mb 0.00 in0.0 mm 0.00 in0.0 mm 0.00 in0.0 mm
12:25 AM 79.7°F26.5°C -28.2°F-33.4°C 0% 4.0 mph SE6.4 kmh SE 8.0 mph12.9 kmh 29.84 in1010.5 mb 0.00 in0.0 mm 0.00 in0.0 mm 0.00 in0.0 mm
12:30 AM 79.7°F26.5°C -28.2°F-33.4°C 0% 4.0 mph SE6.4 kmh SE 8.0 mph12.9 kmh 29.84 in1010.5 mb 0.00 in0.0 mm 0.00 in0.0 mm 0.00 in0.0 mm
12:35 AM 79.6°F26.4°C -28.2°F-33.4°C 0% 3.0 mph SE4.8 kmh SE 9.0 mph14.5 kmh 29.83 in1010.2 mb 0.00 in0.0 mm 0.00 in0.0 mm 0.00 in0.0 mm
12:40 AM 79.6°F26.4°C -28.2°F-33.4°C 0% 4.0 mph SE6.4 kmh SE 9.0 mph14.5 kmh 29.83 in1010.2 mb 0.00 in0.0 mm 0.00 in0.0 mm 0.00 in0.0 mm
12:45 AM 79.5°F26.4°C -28.2°F-33.4°C 0% 4.0 mph SE6.4 kmh SE 10.0 mph16.1 kmh 29.83 in1010.2 mb 0.00 in0.0 mm 0.00 in0.0 mm 0.00 in0.0 mm
12:50 AM 79.5°F26.4°C -28.2°F-33.4°C 0% 4.0 mph SE6.4 kmh SE 10.0 mph16.1 kmh 29.83 in1010.2 mb 0.00 in0.0 mm 0.00 in0.0 mm 0.00 in0.0 mm
12:55 AM 79.4°F26.3°C -28.2°F-33.4°C 0% 4.0 mph ESE6.4 kmh ESE 9.0 mph14.5 kmh 29.83 in1010.2 mb 0.00 in0.0 mm 0.00 in0.0 mm 0.00 in0.0 mm
01:00 AM 79.4°F26.3°C -28.2°F-33.4°C 0% 4.0 mph SE6.4 kmh SE 10.0 mph16.1 kmh 29.83 in1010.2 mb 0.00 in0.0 mm 0.00 in0.0 mm 0.00 in0.0 mm
01:05 AM 79.4°F26.3°C -28.2°F-33.4°C 0% 4.0 mph SE6.4 kmh SE 10.0 mph16.1 kmh 29.83 in1010.2 mb 0.00 in0.0 mm 0.00 in0.0 mm 0.00 in0.0 mm
01:10 AM 79.4°F26.3°C -28.2°F-33.4°C 0% 4.0 mph SE6.4 kmh SE 10.0 mph16.1 kmh 29.83 in1010.2 mb 0.00 in0.0 mm 0.00 in0.0 mm 0.00 in0.0 mm
01:15 AM 79.4°F26.3°C -28.2°F-33.4°C 0% 5.0 mph SE8.0 kmh SE 10.0 mph16.1 kmh 29.83 in1010.2 mb 0.00 in0.0 mm 0.00 in0.0 mm 0.00 in0.0 mm
01:20 AM 79.4°F26.3°C -28.2°F-33.4°C 0% 6.0 mph SE9.7 kmh SE 11.0 mph17.7 kmh 29.83 in1010.2 mb 0.00 in0.0 mm 0.00 in0.0 mm 0.00 in0.0 mm
01:25 AM 79.5°F26.4°C -28.2°F-33.4°C 0% 6.0 mph SE9.7 kmh SE 12.0 mph19.3 kmh 29.83 in1010.2 mb 0.00 in0.0 mm 0.00 in0.0 mm 0.00 in0.0 mm
01:30 AM 79.4°F26.3°C -28.2°F-33.4°C 0% 5.0 mph SE8.0 kmh SE 12.0 mph19.3 kmh 29.83 in1010.2 mb 0.00 in0.0 mm 0.00 in0.0 mm 0.00 in0.0 mm
01:35 AM 79.5°F26.4°C -28.2°F-33.4°C 0% 5.0 mph SE8.0 kmh SE 11.0 mph17.7 kmh 29.83 in1010.2 mb 0.00 in0.0 mm 0.00 in0.0 mm 0.00 in0.0 mm
01:40 AM 79.5°F26.4°C -28.2°F-33.4°C 0% 5.0 mph SE8.0 kmh SE 12.0 mph19.3 kmh 29.83 in1010.2 mb 0.00 in0.0 mm 0.00 in0.0 mm 0.00 in0.0 mm
01:45 AM 79.5°F26.4°C -28.2°F-33.4°C 0% 6.0 mph SE9.7 kmh SE 12.0 mph19.3 kmh 29.83 in1010.2 mb 0.00 in0.0 mm 0.00 in0.0 mm 0.00 in0.0 mm
01:50 AM 79.5°F26.4°C -28.2°F-33.4°C 0% 6.0 mph SE9.7 kmh SE 12.0 mph19.3 kmh 29.83 in1010.2 mb 0.00 in0.0 mm 0.00 in0.0 mm 0.00 in0.0 mm
01:55 AM 79.5°F26.4°C -28.2°F-33.4°C 0% 5.0 mph SE8.0 kmh SE 11.0 mph17.7 kmh 29.83 in1010.2 mb 0.00 in0.0 mm 0.00 in0.0 mm 0.00 in0.0 mm
02:00 AM 79.5°F26.4°C -28.2°F-33.4°C 0% 5.0 mph SE8.0 kmh SE 11.0 mph17.7 kmh 29.83 in1010.2 mb 0.00 in0.0 mm 0.00 in0.0 mm 0.00 in0.0 mm
02:05 AM 79.4°F26.3°C -28.2°F-33.4°C 0% 5.0 mph SE8.0 kmh SE 11.0 mph17.7 kmh 29.83 in1010.2 mb 0.00 in0.0 mm 0.00 in0.0 mm 0.00 in0.0 mm
02:10 AM 79.4°F26.3°C -28.2°F-33.4°C 0% 6.0 mph SE9.7 kmh SE 12.0 mph19.3 kmh 29.83 in1010.2 mb 0.00 in0.0 mm 0.00 in0.0 mm 0.00 in0.0 mm
02:15 AM 79.4°F26.3°C -28.2°F-33.4°C 0% 6.0 mph SE9.7 kmh SE 12.0 mph19.3 kmh 29.83 in1010.2 mb 0.00 in0.0 mm 0.00 in0.0 mm 0.00 in0.0 mm
02:20 AM 79.4°F26.3°C -28.2°F-33.4°C 0% 7.0 mph SE11.3 kmh SE 12.0 mph19.3 kmh 29.83 in1010.2 mb 0.00 in0.0 mm 0.00 in0.0 mm 0.00 in0.0 mm
02:25 AM 79.5°F26.4°C -28.2°F-33.4°C 0% 7.0 mph SE11.3 kmh SE 11.0 mph17.7 kmh 29.82 in1009.8 mb 0.00 in0.0 mm 0.00 in0.0 mm 0.00 in0.0 mm
02:30 AM 79.5°F26.4°C -28.2°F-33.4°C 0% 6.0 mph SE9.7 kmh SE 13.0 mph20.9 kmh 29.82 in1009.8 mb 0.00 in0.0 mm 0.00 in0.0 mm 0.00 in0.0 mm
02:35 AM 79.5°F26.4°C -28.2°F-33.4°C 0% 6.0 mph SE9.7 kmh SE 13.0 mph20.9 kmh 29.82 in1009.8 mb 0.00 in0.0 mm 0.00 in0.0 mm 0.00 in0.0 mm
02:40 AM 79.5°F26.4°C -28.2°F-33.4°C 0% 6.0 mph SE9.7 kmh SE 11.0 mph17.7 kmh 29.82 in1009.8 mb 0.00 in0.0 mm 0.00 in0.0 mm 0.00 in0.0 mm
02:45 AM 79.5°F26.4°C -28.2°F-33.4°C 0% 6.0 mph SE9.7 kmh SE 13.0 mph20.9 kmh 29.82 in1009.8 mb 0.00 in0.0 mm 0.00 in0.0 mm 0.00 in0.0 mm
02:50 AM 79.5°F26.4°C -28.2°F-33.4°C 0% 6.0 mph SE9.7 kmh SE 13.0 mph20.9 kmh 29.81 in1009.5 mb 0.00 in0.0 mm 0.00 in0.0 mm 0.00 in0.0 mm
02:55 AM 79.5°F26.4°C -28.2°F-33.4°C 0% 5.0 mph SE8.0 kmh SE 10.0 mph16.1 kmh 29.81 in1009.5 mb 0.00 in0.0 mm 0.00 in0.0 mm 0.00 in0.0 mm
03:00 AM 79.5°F26.4°C -28.2°F-33.4°C 0% 6.0 mph SE9.7 kmh SE 10.0 mph16.1 kmh 29.81 in1009.5 mb 0.00 in0.0 mm 0.00 in0.0 mm 0.00 in0.0 mm
03:05 AM 79.5°F26.4°C -28.2°F-33.4°C 0% 6.0 mph SE9.7 kmh SE 12.0 mph19.3 kmh 29.81 in1009.5 mb 0.00 in0.0 mm 0.00 in0.0 mm 0.00 in0.0 mm
03:10 AM 79.5°F26.4°C -28.2°F-33.4°C 0% 6.0 mph SE9.7 kmh SE 12.0 mph19.3 kmh 29.81 in1009.5 mb 0.00 in0.0 mm 0.00 in0.0 mm 0.00 in0.0 mm
03:15 AM 79.5°F26.4°C -28.2°F-33.4°C 0% 7.0 mph SE11.3 kmh SE 12.0 mph19.3 kmh 29.81 in1009.5 mb 0.00 in0.0 mm 0.00 in0.0 mm 0.00 in0.0 mm
03:20 AM 79.5°F26.4°C -28.2°F-33.4°C 0% 7.0 mph SE11.3 kmh SE 14.0 mph22.5 kmh 29.80 in1009.1 mb 0.00 in0.0 mm 0.00 in0.0 mm 0.00 in0.0 mm
03:25 AM 79.4°F26.3°C -28.2°F-33.4°C 0% 7.0 mph SE11.3 kmh SE 14.0 mph22.5 kmh 29.80 in1009.1 mb 0.00 in0.0 mm 0.00 in0.0 mm 0.00 in0.0 mm
03:30 AM 79.4°F26.3°C -28.2°F-33.4°C 0% 6.0 mph SE9.7 kmh SE 11.0 mph17.7 kmh 29.80 in1009.1 mb 0.00 in0.0 mm 0.00 in0.0 mm 0.00 in0.0 mm
03:35 AM 79.4°F26.3°C -28.2°F-33.4°C 0% 5.0 mph SE8.0 kmh SE 13.0 mph20.9 kmh 29.81 in1009.5 mb 0.00 in0.0 mm 0.00 in0.0 mm 0.00 in0.0 mm
03:40 AM 79.4°F26.3°C -28.2°F-33.4°C 0% 6.0 mph SE9.7 kmh SE 13.0 mph20.9 kmh 29.81 in1009.5 mb 0.00 in0.0 mm 0.00 in0.0 mm 0.00 in0.0 mm
03:45 AM 79.3°F26.3°C -28.2°F-33.4°C 0% 5.0 mph SE8.0 kmh SE 10.0 mph16.1 kmh 29.80 in1009.1 mb 0.00 in0.0 mm 0.00 in0.0 mm 0.00 in0.0 mm
03:50 AM 79.3°F26.3°C -28.2°F-33.4°C 0% 5.0 mph SE8.0 kmh SE 11.0 mph17.7 kmh 29.80 in1009.1 mb 0.00 in0.0 mm 0.00 in0.0 mm 0.00 in0.0 mm
03:55 AM 79.3°F26.3°C -28.2°F-33.4°C 0% 6.0 mph SE9.7 kmh SE 13.0 mph20.9 kmh 29.80 in1009.1 mb 0.00 in0.0 mm 0.00 in0.0 mm 0.00 in0.0 mm
04:00 AM 79.3°F26.3°C -28.2°F-33.4°C 0% 6.0 mph SE9.7 kmh SE 13.0 mph20.9 kmh 29.80 in1009.1 mb 0.00 in0.0 mm 0.00 in0.0 mm 0.00 in0.0 mm
04:05 AM 79.2°F26.2°C -28.2°F-33.4°C 0% 5.0 mph SE8.0 kmh SE 11.0 mph17.7 kmh 29.80 in1009.1 mb 0.00 in0.0 mm 0.00 in0.0 mm 0.00 in0.0 mm
04:10 AM 79.2°F26.2°C -28.2°F-33.4°C 0% 5.0 mph SE8.0 kmh SE 9.0 mph14.5 kmh 29.80 in1009.1 mb 0.00 in0.0 mm 0.00 in0.0 mm 0.00 in0.0 mm
04:15 AM 79.2°F26.2°C -28.2°F-33.4°C 0% 6.0 mph SE9.7 kmh SE 11.0 mph17.7 kmh 29.80 in1009.1 mb 0.00 in0.0 mm 0.00 in0.0 mm 0.00 in0.0 mm
04:20 AM 79.2°F26.2°C -28.2°F-33.4°C 0% 6.0 mph SE9.7 kmh SE 11.0 mph17.7 kmh 29.80 in1009.1 mb 0.00 in0.0 mm 0.00 in0.0 mm 0.00 in0.0 mm
04:25 AM 79.2°F26.2°C -28.2°F-33.4°C 0% 6.0 mph SE9.7 kmh SE 10.0 mph16.1 kmh 29.80 in1009.1 mb 0.00 in0.0 mm 0.00 in0.0 mm 0.00 in0.0 mm
04:30 AM 79.1°F26.2°C -28.2°F-33.4°C 0% 5.0 mph SE8.0 kmh SE 10.0 mph16.1 kmh 29.80 in1009.1 mb 0.00 in0.0 mm 0.00 in0.0 mm 0.00 in0.0 mm
04:35 AM 79.1°F26.2°C -28.2°F-33.4°C 0% 5.0 mph SE8.0 kmh SE 11.0 mph17.7 kmh 29.80 in1009.1 mb 0.00 in0.0 mm 0.00 in0.0 mm 0.00 in0.0 mm
04:40 AM 79.1°F26.2°C -28.2°F-33.4°C 0% 6.0 mph SE9.7 kmh SE 11.0 mph17.7 kmh 29.80 in1009.1 mb 0.00 in0.0 mm 0.00 in0.0 mm 0.00 in0.0 mm
04:45 AM 79.1°F26.2°C -28.2°F-33.4°C 0% 6.0 mph SE9.7 kmh SE 11.0 mph17.7 kmh 29.79 in1008.8 mb 0.00 in0.0 mm 0.00 in0.0 mm 0.00 in0.0 mm
04:50 AM 79.0°F26.1°C -28.2°F-33.4°C 0% 6.0 mph SE9.7 kmh SE 11.0 mph17.7 kmh 29.79 in1008.8 mb 0.00 in0.0 mm 0.00 in0.0 mm 0.00 in0.0 mm
04:55 AM 79.0°F26.1°C -28.2°F-33.4°C 0% 6.0 mph SE9.7 kmh SE 12.0 mph19.3 kmh 29.79 in1008.8 mb 0.00 in0.0 mm 0.00 in0.0 mm 0.00 in0.0 mm
05:00 AM 79.0°F26.1°C -28.2°F-33.4°C 0% 5.0 mph SE8.0 kmh SE 12.0 mph19.3 kmh 29.79 in1008.8 mb 0.00 in0.0 mm 0.00 in0.0 mm 0.00 in0.0 mm
05:05 AM 79.0°F26.1°C -28.2°F-33.4°C 0% 5.0 mph SE8.0 kmh SE 10.0 mph16.1 kmh 29.79 in1008.8 mb 0.00 in0.0 mm 0.00 in0.0 mm 0.00 in0.0 mm
05:10 AM 79.0°F26.1°C -28.2°F-33.4°C 0% 5.0 mph SE8.0 kmh SE 11.0 mph17.7 kmh 29.79 in1008.8 mb 0.00 in0.0 mm 0.00 in0.0 mm 0.00 in0.0 mm
05:15 AM 79.0°F26.1°C -28.2°F-33.4°C 0% 5.0 mph SE8.0 kmh SE 11.0 mph17.7 kmh 29.79 in1008.8 mb 0.00 in0.0 mm 0.00 in0.0 mm 0.00 in0.0 mm
05:20 AM 79.0°F26.1°C -28.2°F-33.4°C 0% 5.0 mph SE8.0 kmh SE 10.0 mph16.1 kmh 29.79 in1008.8 mb 0.00 in0.0 mm 0.00 in0.0 mm 0.00 in0.0 mm
05:25 AM 79.0°F26.1°C -28.2°F-33.4°C 0% 5.0 mph SE8.0 kmh SE 10.0 mph16.1 kmh 29.79 in1008.8 mb 0.00 in0.0 mm 0.00 in0.0 mm 0.00 in0.0 mm
05:30 AM 79.1°F26.2°C -28.2°F-33.4°C 0% 4.0 mph SE6.4 kmh SE 10.0 mph16.1 kmh 29.79 in1008.8 mb 0.00 in0.0 mm 0.00 in0.0 mm 0.00 in0.0 mm
05:35 AM 79.1°F26.2°C -28.2°F-33.4°C 0% 4.0 mph SE6.4 kmh SE 8.0 mph12.9 kmh 29.79 in1008.8 mb 0.00 in0.0 mm 0.00 in0.0 mm 0.00 in0.0 mm
05:40 AM 79.2°F26.2°C -28.2°F-33.4°C 0% 5.0 mph SE8.0 kmh SE 11.0 mph17.7 kmh 29.79 in1008.8 mb 0.00 in0.0 mm 0.00 in0.0 mm 0.00 in0.0 mm
05:45 AM 79.3°F26.3°C -28.2°F-33.4°C 0% 5.0 mph SE8.0 kmh SE 13.0 mph20.9 kmh 29.79 in1008.8 mb 0.00 in0.0 mm 0.00 in0.0 mm 0.00 in0.0 mm
05:50 AM 79.3°F26.3°C -28.2°F-33.4°C 0% 6.0 mph SE9.7 kmh SE 13.0 mph20.9 kmh 29.79 in1008.8 mb 0.00 in0.0 mm 0.00 in0.0 mm 0.00 in0.0 mm
05:55 AM 79.4°F26.3°C -28.2°F-33.4°C 0% 6.0 mph SE9.7 kmh SE 14.0 mph22.5 kmh 29.80 in1009.1 mb 0.00 in0.0 mm 0.00 in0.0 mm 0.00 in0.0 mm
06:00 AM 79.5°F26.4°C -28.2°F-33.4°C 0% 6.0 mph SE9.7 kmh SE 14.0 mph22.5 kmh 29.79 in1008.8 mb 0.00 in0.0 mm 0.00 in0.0 mm 0.00 in0.0 mm
06:05 AM 79.6°F26.4°C -28.2°F-33.4°C 0% 6.0 mph SE9.7 kmh SE 14.0 mph22.5 kmh 29.79 in1008.8 mb 0.00 in0.0 mm 0.00 in0.0 mm 0.00 in0.0 mm
06:10 AM 79.6°F26.4°C -28.2°F-33.4°C 0% 6.0 mph SE9.7 kmh SE 14.0 mph22.5 kmh 29.79 in1008.8 mb 0.00 in0.0 mm 0.00 in0.0 mm 0.00 in0.0 mm
06:15 AM 79.7°F26.5°C -28.2°F-33.4°C 0% 6.0 mph SE9.7 kmh SE 14.0 mph22.5 kmh 29.79 in1008.8 mb 0.00 in0.0 mm 0.00 in0.0 mm 0.00 in0.0 mm
06:20 AM 79.8°F26.6°C -28.2°F-33.4°C 0% 6.0 mph SE9.7 kmh SE 14.0 mph22.5 kmh 29.79 in1008.8 mb 0.00 in0.0 mm 0.00 in0.0 mm 0.00 in0.0 mm
06:25 AM 79.9°F26.6°C -28.2°F-33.4°C 0% 5.0 mph SE8.0 kmh SE 11.0 mph17.7 kmh 29.79 in1008.8 mb 0.00 in0.0 mm 0.00 in0.0 mm 0.00 in0.0 mm
06:30 AM 80.0°F26.7°C -28.2°F-33.4°C 0% 6.0 mph SE9.7 kmh SE 11.0 mph17.7 kmh 29.80 in1009.1 mb 0.00 in0.0 mm 0.00 in0.0 mm 0.00 in0.0 mm
06:35 AM 80.1°F26.7°C -28.2°F-33.4°C 0% 6.0 mph SE9.7 kmh SE 12.0 mph19.3 kmh 29.80 in1009.1 mb 0.00 in0.0 mm 0.00 in0.0 mm 0.00 in0.0 mm
06:40 AM 80.2°F26.8°C -28.2°F-33.4°C 0% 6.0 mph SE9.7 kmh SE 13.0 mph20.9 kmh 29.80 in1009.1 mb 0.00 in0.0 mm 0.00 in0.0 mm 0.00 in0.0 mm
06:45 AM 80.3°F26.8°C -28.2°F-33.4°C 0% 7.0 mph SE11.3 kmh SE 18.0 mph29.0 kmh 29.80 in1009.1 mb 0.00 in0.0 mm 0.00 in0.0 mm 0.00 in0.0 mm
06:50 AM 80.3°F26.8°C -28.2°F-33.4°C 0% 9.0 mph SE14.5 kmh SE 18.0 mph29.0 kmh 29.79 in1008.8 mb 0.00 in0.0 mm 0.00 in0.0 mm 0.00 in0.0 mm
06:55 AM 80.4°F26.9°C -28.2°F-33.4°C 0% 8.0 mph SE12.9 kmh SE 17.0 mph27.4 kmh 29.79 in1008.8 mb 0.00 in0.0 mm 0.00 in0.0 mm 0.00 in0.0 mm
07:00 AM 80.4°F26.9°C -28.2°F-33.4°C 0% 7.0 mph SE11.3 kmh SE 14.0 mph22.5 kmh 29.80 in1009.1 mb 0.00 in0.0 mm 0.00 in0.0 mm 0.00 in0.0 mm
07:05 AM 80.4°F26.9°C -28.2°F-33.4°C 0% 7.0 mph SE11.3 kmh SE 14.0 mph22.5 kmh 29.80 in1009.1 mb 0.00 in0.0 mm 0.00 in0.0 mm 0.00 in0.0 mm
07:10 AM 80.4°F26.9°C -28.2°F-33.4°C 0% 7.0 mph SE11.3 kmh SE 13.0 mph20.9 kmh 29.80 in1009.1 mb 0.00 in0.0 mm 0.00 in0.0 mm 0.00 in0.0 mm
07:15 AM 80.4°F26.9°C -28.2°F-33.4°C 0% 7.0 mph SE11.3 kmh SE 16.0 mph25.7 kmh 29.80 in1009.1 mb 0.00 in0.0 mm 0.00 in0.0 mm 0.00 in0.0 mm
07:20 AM 80.4°F26.9°C -28.2°F-33.4°C 0% 7.0 mph SE11.3 kmh SE 16.0 mph25.7 kmh 29.80 in1009.1 mb 0.00 in0.0 mm 0.00 in0.0 mm 0.00 in0.0 mm
07:25 AM 80.4°F26.9°C -28.2°F-33.4°C 0% 7.0 mph SE11.3 kmh SE 13.0 mph20.9 kmh 29.80 in1009.1 mb 0.00 in0.0 mm 0.00 in0.0 mm 0.00 in0.0 mm
07:30 AM 80.4°F26.9°C -28.2°F-33.4°C 0% 6.0 mph SE9.7 kmh SE 18.0 mph29.0 kmh 29.80 in1009.1 mb 0.00 in0.0 mm 0.00 in0.0 mm 0.00 in0.0 mm
07:35 AM 80.4°F26.9°C -28.2°F-33.4°C 0% 7.0 mph SE11.3 kmh SE 18.0 mph29.0 kmh 29.80 in1009.1 mb 0.00 in0.0 mm 0.00 in0.0 mm 0.00 in0.0 mm
07:40 AM 80.4°F26.9°C -28.2°F-33.4°C 0% 7.0 mph SE11.3 kmh SE 13.0 mph20.9 kmh 29.81 in1009.5 mb 0.00 in0.0 mm 0.00 in0.0 mm 0.00 in0.0 mm
07:45 AM 80.4°F26.9°C -28.2°F-33.4°C 0% 7.0 mph SE11.3 kmh SE 13.0 mph20.9 kmh 29.81 in1009.5 mb 0.00 in0.0 mm 0.00 in0.0 mm 0.00 in0.0 mm
07:50 AM 80.4°F26.9°C -28.2°F-33.4°C 0% 6.0 mph SE9.7 kmh SE 12.0 mph19.3 kmh 29.81 in1009.5 mb 0.00 in0.0 mm 0.00 in0.0 mm 0.00 in0.0 mm
07:55 AM 80.4°F26.9°C -28.2°F-33.4°C 0% 7.0 mph SE11.3 kmh SE 15.0 mph24.1 kmh 29.81 in1009.5 mb 0.00 in0.0 mm 0.00 in0.0 mm 0.00 in0.0 mm
08:00 AM 80.5°F26.9°C -28.2°F-33.4°C 0% 6.0 mph SE9.7 kmh SE 15.0 mph24.1 kmh 29.82 in1009.8 mb 0.00 in0.0 mm 0.00 in0.0 mm 0.00 in0.0 mm
08:05 AM 80.5°F26.9°C -28.2°F-33.4°C 0% 6.0 mph SE9.7 kmh SE 13.0 mph20.9 kmh 29.82 in1009.8 mb 0.00 in0.0 mm 0.00 in0.0 mm 0.00 in0.0 mm
08:10 AM 80.6°F27.0°C -28.2°F-33.4°C 0% 6.0 mph SSE9.7 kmh SSE 13.0 mph20.9 kmh 29.82 in1009.8 mb 0.00 in0.0 mm 0.00 in0.0 mm 0.00 in0.0 mm
08:15 AM 80.6°F27.0°C -28.2°F-33.4°C 0% 7.0 mph SE11.3 kmh SE 16.0 mph25.7 kmh 29.82 in1009.8 mb 0.00 in0.0 mm 0.00 in0.0 mm 0.00 in0.0 mm
08:20 AM 80.7°F27.1°C -28.2°F-33.4°C 0% 8.0 mph SE12.9 kmh SE 16.0 mph25.7 kmh 29.82 in1009.8 mb 0.00 in0.0 mm 0.00 in0.0 mm 0.00 in0.0 mm
08:25 AM 80.8°F27.1°C -28.2°F-33.4°C 0% 7.0 mph SE11.3 kmh SE 13.0 mph20.9 kmh 29.82 in1009.8 mb 0.00 in0.0 mm 0.00 in0.0 mm 0.00 in0.0 mm
08:30 AM 80.9°F27.2°C -28.2°F-33.4°C 0% 8.0 mph SE12.9 kmh SE 15.0 mph24.1 kmh 29.82 in1009.8 mb 0.00 in0.0 mm 0.00 in0.0 mm 0.00 in0.0 mm
08:35 AM 81.0°F27.2°C -28.2°F-33.4°C 0% 8.0 mph SE12.9 kmh SE 15.0 mph24.1 kmh 29.82 in1009.8 mb 0.00 in0.0 mm 0.00 in0.0 mm 0.00 in0.0 mm
08:40 AM 81.1°F27.3°C -28.2°F-33.4°C 0% 8.0 mph SE12.9 kmh SE 14.0 mph22.5 kmh 29.83 in1010.2 mb 0.00 in0.0 mm 0.00 in0.0 mm 0.00 in0.0 mm
08:45 AM 81.2°F27.3°C -28.2°F-33.4°C 0% 8.0 mph SSE12.9 kmh SSE 15.0 mph24.1 kmh 29.83 in1010.2 mb 0.00 in0.0 mm 0.00 in0.0 mm 0.00 in0.0 mm
08:50 AM 81.3°F27.4°C -28.2°F-33.4°C 0% 8.0 mph SSE12.9 kmh SSE 15.0 mph24.1 kmh 29.83 in1010.2 mb 0.00 in0.0 mm 0.00 in0.0 mm 0.00 in0.0 mm
08:55 AM 81.4°F27.4°C -28.2°F-33.4°C 0% 8.0 mph SE12.9 kmh SE 15.0 mph24.1 kmh 29.83 in1010.2 mb 0.00 in0.0 mm 0.00 in0.0 mm 0.00 in0.0 mm
09:00 AM 81.4°F27.4°C -28.2°F-33.4°C 0% 8.0 mph SE12.9 kmh SE 14.0 mph22.5 kmh 29.83 in1010.2 mb 0.00 in0.0 mm 0.00 in0.0 mm 0.00 in0.0 mm
09:05 AM 81.3°F27.4°C -28.2°F-33.4°C 0% 8.0 mph SE12.9 kmh SE 14.0 mph22.5 kmh 29.84 in1010.5 mb 0.00 in0.0 mm 0.00 in0.0 mm 0.00 in0.0 mm
09:10 AM 81.3°F27.4°C -28.2°F-33.4°C 0% 7.0 mph SE11.3 kmh SE 15.0 mph24.1 kmh 29.84 in1010.5 mb 0.00 in0.0 mm 0.00 in0.0 mm 0.00 in0.0 mm
09:15 AM 81.4°F27.4°C -28.2°F-33.4°C 0% 8.0 mph SE12.9 kmh SE 15.0 mph24.1 kmh 29.84 in1010.5 mb 0.00 in0.0 mm 0.00 in0.0 mm 0.00 in0.0 mm
09:20 AM 81.4°F27.4°C -28.2°F-33.4°C 0% 8.0 mph SSE12.9 kmh SSE 14.0 mph22.5 kmh 29.84 in1010.5 mb 0.00 in0.0 mm 0.00 in0.0 mm 0.00 in0.0 mm
09:25 AM 81.6°F27.6°C -28.2°F-33.4°C 0% 8.0 mph SSE12.9 kmh SSE 13.0 mph20.9 kmh 29.84 in1010.5 mb 0.00 in0.0 mm 0.00 in0.0 mm 0.00 in0.0 mm
09:30 AM 81.9°F27.7°C -28.2°F-33.4°C 0% 7.0 mph SE11.3 kmh SE 14.0 mph22.5 kmh 29.83 in1010.2 mb 0.00 in0.0 mm 0.00 in0.0 mm 0.00 in0.0 mm
09:35 AM 82.1°F27.8°C -28.2°F-33.4°C 0% 7.0 mph SE11.3 kmh SE 14.0 mph22.5 kmh 29.83 in1010.2 mb 0.00 in0.0 mm 0.00 in0.0 mm 0.00 in0.0 mm
09:40 AM 82.3°F27.9°C -28.2°F-33.4°C 0% 8.0 mph SE12.9 kmh SE 14.0 mph22.5 kmh 29.83 in1010.2 mb 0.00 in0.0 mm 0.00 in0.0 mm 0.00 in0.0 mm
09:45 AM 82.4°F28.0°C -28.2°F-33.4°C 0% 8.0 mph SE12.9 kmh SE 14.0 mph22.5 kmh 29.84 in1010.5 mb 0.00 in0.0 mm 0.00 in0.0 mm 0.00 in0.0 mm
09:50 AM 82.6°F28.1°C -28.2°F-33.4°C 0% 7.0 mph SE11.3 kmh SE 17.0 mph27.4 kmh 29.84 in1010.5 mb 0.00 in0.0 mm 0.00 in0.0 mm 0.00 in0.0 mm
09:55 AM 82.8°F28.2°C -28.2°F-33.4°C 0% 7.0 mph SE11.3 kmh SE 17.0 mph27.4 kmh 29.84 in1010.5 mb 0.00 in0.0 mm 0.00 in0.0 mm 0.00 in0.0 mm
10:00 AM 82.9°F28.3°C -28.2°F-33.4°C 0% 8.0 mph SE12.9 kmh SE 20.0 mph32.2 kmh 29.83 in1010.2 mb 0.00 in0.0 mm 0.00 in0.0 mm 0.00 in0.0 mm
10:05 AM 83.0°F28.3°C -28.2°F-33.4°C 0% 9.0 mph SE14.5 kmh SE 20.0 mph32.2 kmh 29.84 in1010.5 mb 0.00 in0.0 mm 0.00 in0.0 mm 0.00 in0.0 mm
10:10 AM 83.1°F28.4°C -28.2°F-33.4°C 0% 9.0 mph SE14.5 kmh SE 17.0 mph27.4 kmh 29.84 in1010.5 mb 0.00 in0.0 mm 0.00 in0.0 mm 0.00 in0.0 mm
10:15 AM 83.1°F28.4°C -28.2°F-33.4°C 0% 9.0 mph SE14.5 kmh SE 17.0 mph27.4 kmh 29.84 in1010.5 mb 0.00 in0.0 mm 0.00 in0.0 mm 0.00 in0.0 mm
10:20 AM 83.3°F28.5°C -28.2°F-33.4°C 0% 9.0 mph SE14.5 kmh SE 16.0 mph25.7 kmh 29.83 in1010.2 mb 0.00 in0.0 mm 0.00 in0.0 mm 0.00 in0.0 mm
10:25 AM 83.6°F28.7°C -28.2°F-33.4°C 0% 9.0 mph SE14.5 kmh SE 16.0 mph25.7 kmh 29.83 in1010.2 mb 0.00 in0.0 mm 0.00 in0.0 mm 0.00 in0.0 mm
10:30 AM 84.0°F28.9°C -28.2°F-33.4°C 0% 9.0 mph SE14.5 kmh SE 16.0 mph25.7 kmh 29.83 in1010.2 mb 0.00 in0.0 mm 0.00 in0.0 mm 0.00 in0.0 mm
10:35 AM 84.2°F29.0°C -26.7°F-32.6°C 1% 9.0 mph SE14.5 kmh SE 20.0 mph32.2 kmh 29.83 in1010.2 mb 0.00 in0.0 mm 0.00 in0.0 mm 0.00 in0.0 mm
10:40 AM 84.3°F29.1°C 1.1°F-17.2°C 4% 10.0 mph SSE16.1 kmh SSE 20.0 mph32.2 kmh 29.83 in1010.2 mb 0.00 in0.0 mm 0.00 in0.0 mm 0.00 in0.0 mm
10:45 AM 84.4°F29.1°C -13.2°F-25.1°C 2% 10.0 mph SSE16.1 kmh SSE 18.0 mph29.0 kmh 29.84 in1010.5 mb 0.00 in0.0 mm 0.00 in0.0 mm 0.00 in0.0 mm
10:50 AM 84.6°F29.2°C -13.0°F-25.0°C 2% 9.0 mph SE14.5 kmh SE 17.0 mph27.4 kmh 29.84 in1010.5 mb 0.00 in0.0 mm 0.00 in0.0 mm 0.00 in0.0 mm
10:55 AM 84.8°F29.3°C 13.9°F-10.1°C 7% 9.0 mph SE14.5 kmh SE 17.0 mph27.4 kmh 29.83 in1010.2 mb 0.00 in0.0 mm 0.00 in0.0 mm 0.00 in0.0 mm
11:00 AM 85.0°F29.4°C 6.5°F-14.2°C 5% 9.0 mph SSE14.5 kmh SSE 16.0 mph25.7 kmh 29.84 in1010.5 mb 0.00 in0.0 mm 0.00 in0.0 mm 0.00 in0.0 mm
11:05 AM 85.4°F29.7°C 24.9°F-3.9°C 11% 8.0 mph SSE12.9 kmh SSE 16.0 mph25.7 kmh 29.84 in1010.5 mb 0.00 in0.0 mm 0.00 in0.0 mm 0.00 in0.0 mm
11:10 AM 85.7°F29.8°C 31.0°F-0.6°C 14% 9.0 mph SSE14.5 kmh SSE 14.0 mph22.5 kmh 29.84 in1010.5 mb 0.00 in0.0 mm 0.00 in0.0 mm 0.00 in0.0 mm
11:15 AM 85.7°F29.8°C 35.9°F2.2°C 17% 10.0 mph SSE16.1 kmh SSE 19.0 mph30.6 kmh 29.83 in1010.2 mb 0.00 in0.0 mm 0.00 in0.0 mm 0.00 in0.0 mm
11:20 AM 85.7°F29.8°C 34.3°F1.3°C 16% 10.0 mph SSE16.1 kmh SSE 19.0 mph30.6 kmh 29.83 in1010.2 mb 0.00 in0.0 mm 0.00 in0.0 mm 0.00 in0.0 mm
11:25 AM 85.7°F29.8°C 35.9°F2.2°C 17% 9.0 mph SSE14.5 kmh SSE 17.0 mph27.4 kmh 29.83 in1010.2 mb 0.00 in0.0 mm 0.00 in0.0 mm 0.00 in0.0 mm
11:30 AM 85.6°F29.8°C 35.8°F2.1°C 17% 9.0 mph SSE14.5 kmh SSE 17.0 mph27.4 kmh 29.83 in1010.2 mb 0.00 in0.0 mm 0.00 in0.0 mm 0.00 in0.0 mm
11:35 AM 85.6°F29.8°C 32.6°F0.3°C 15% 9.0 mph SSE14.5 kmh SSE 17.0 mph27.4 kmh 29.83 in1010.2 mb 0.00 in0.0 mm 0.00 in0.0 mm 0.00 in0.0 mm
11:40 AM 85.8°F29.9°C 37.4°F3.0°C 18% 8.0 mph SSE12.9 kmh SSE 13.0 mph20.9 kmh 29.83 in1010.2 mb 0.00 in0.0 mm 0.00 in0.0 mm 0.00 in0.0 mm
11:45 AM 86.1°F30.1°C 37.6°F3.1°C 18% 8.0 mph S12.9 kmh S 15.0 mph24.1 kmh 29.83 in1010.2 mb 0.00 in0.0 mm 0.00 in0.0 mm 0.00 in0.0 mm
11:50 AM 86.4°F30.2°C 47.5°F8.6°C 26% 8.0 mph SSE12.9 kmh SSE 16.0 mph25.7 kmh 29.83 in1010.2 mb 0.00 in0.0 mm 0.00 in0.0 mm 0.00 in0.0 mm
11:55 AM 86.9°F30.5°C 45.8°F7.7°C 24% 9.0 mph S14.5 kmh S 19.0 mph30.6 kmh 29.83 in1010.2 mb 0.00 in0.0 mm 0.00 in0.0 mm 0.00 in0.0 mm
12:00 PM 87.5°F30.8°C 51.3°F10.7°C 29% 8.0 mph S12.9 kmh S 19.0 mph30.6 kmh 29.83 in1010.2 mb 0.00 in0.0 mm 0.00 in0.0 mm 0.00 in0.0 mm
12:05 PM 87.6°F30.9°C 55.8°F13.2°C 34% 9.0 mph SSE14.5 kmh SSE 20.0 mph32.2 kmh 29.83 in1010.2 mb 0.00 in0.0 mm 0.00 in0.0 mm 0.00 in0.0 mm
12:10 PM 87.5°F30.8°C 57.3°F14.1°C 36% 10.0 mph SSE16.1 kmh SSE 22.0 mph35.4 kmh 29.83 in1010.2 mb 0.00 in0.0 mm 0.00 in0.0 mm 0.00 in0.0 mm
12:15 PM 87.7°F30.9°C 55.9°F13.3°C 34% 10.0 mph SSE16.1 kmh SSE 22.0 mph35.4 kmh 29.83 in1010.2 mb 0.00 in0.0 mm 0.00 in0.0 mm 0.00 in0.0 mm
12:20 PM 87.8°F31.0°C 60.5°F15.8°C 40% 10.0 mph S16.1 kmh S 21.0 mph33.8 kmh 29.82 in1009.8 mb 0.00 in0.0 mm 0.00 in0.0 mm 0.00 in0.0 mm
12:25 PM 87.7°F30.9°C 61.1°F16.2°C 41% 11.0 mph SSE17.7 kmh SSE 21.0 mph33.8 kmh 29.83 in1010.2 mb 0.00 in0.0 mm 0.00 in0.0 mm 0.00 in0.0 mm
12:30 PM 87.7°F30.9°C 61.1°F16.2°C 41% 11.0 mph S17.7 kmh S 20.0 mph32.2 kmh 29.82 in1009.8 mb 0.00 in0.0 mm 0.00 in0.0 mm 0.00 in0.0 mm
12:35 PM 87.9°F31.1°C 62.6°F17.0°C 43% 10.0 mph S16.1 kmh S 19.0 mph30.6 kmh 29.82 in1009.8 mb 0.00 in0.0 mm 0.00 in0.0 mm 0.00 in0.0 mm
12:40 PM 88.3°F31.3°C 63.6°F17.6°C 44% 10.0 mph SSE16.1 kmh SSE 17.0 mph27.4 kmh 29.82 in1009.8 mb 0.00 in0.0 mm 0.00 in0.0 mm 0.00 in0.0 mm
12:45 PM 88.1°F31.2°C 64.1°F17.8°C 45% 11.0 mph SSE17.7 kmh SSE 20.0 mph32.2 kmh 29.82 in1009.8 mb 0.00 in0.0 mm 0.00 in0.0 mm 0.00 in0.0 mm
12:50 PM 87.6°F30.9°C 60.3°F15.7°C 40% 10.0 mph S16.1 kmh S 20.0 mph32.2 kmh 29.82 in1009.8 mb 0.00 in0.0 mm 0.00 in0.0 mm 0.00 in0.0 mm
12:55 PM 87.0°F30.6°C 52.7°F11.5°C 31% 9.0 mph SSE14.5 kmh SSE 15.0 mph24.1 kmh 29.81 in1009.5 mb 0.00 in0.0 mm 0.00 in0.0 mm 0.00 in0.0 mm
01:00 PM 86.2°F30.1°C 40.4°F4.7°C 20% 9.0 mph SSE14.5 kmh SSE 16.0 mph25.7 kmh 29.82 in1009.8 mb 0.00 in0.0 mm 0.00 in0.0 mm 0.00 in0.0 mm
01:05 PM 84.5°F29.2°C 1.3°F-17.1°C 0% 9.0 mph SSE14.5 kmh SSE 22.0 mph35.4 kmh 29.81 in1009.5 mb 0.06 in1.5 mm 0.72 in18.3 mm 0.06 in1.5 mm
01:10 PM 83.4°F28.6°C 1.3°F-17.1°C 0% 7.0 mph S11.3 kmh S 22.0 mph35.4 kmh 29.81 in1009.5 mb 0.06 in1.5 mm 0.00 in0.0 mm 0.06 in1.5 mm
01:15 PM 82.9°F28.3°C 1.3°F-17.1°C 0% 5.0 mph S8.0 kmh S 9.0 mph14.5 kmh 29.81 in1009.5 mb 0.06 in1.5 mm 0.00 in0.0 mm 0.06 in1.5 mm
01:20 PM 82.7°F28.2°C 1.3°F-17.1°C 0% 4.0 mph S6.4 kmh S 8.0 mph12.9 kmh 29.81 in1009.5 mb 0.06 in1.5 mm 0.00 in0.0 mm 0.06 in1.5 mm
01:25 PM 82.6°F28.1°C 1.3°F-17.1°C 0% 5.0 mph S8.0 kmh S 12.0 mph19.3 kmh 29.81 in1009.5 mb 0.06 in1.5 mm 0.00 in0.0 mm 0.06 in1.5 mm
01:30 PM 82.9°F28.3°C 1.3°F-17.1°C 0% 5.0 mph S8.0 kmh S 12.0 mph19.3 kmh 29.80 in1009.1 mb 0.06 in1.5 mm 0.00 in0.0 mm 0.06 in1.5 mm
01:35 PM 83.0°F28.3°C 1.3°F-17.1°C 0% 4.0 mph SSW6.4 kmh SSW 10.0 mph16.1 kmh 29.80 in1009.1 mb 0.06 in1.5 mm 0.00 in0.0 mm 0.06 in1.5 mm
01:40 PM 83.0°F28.3°C 1.3°F-17.1°C 0% 3.0 mph SSW4.8 kmh SSW 10.0 mph16.1 kmh 29.80 in1009.1 mb 0.06 in1.5 mm 0.00 in0.0 mm 0.06 in1.5 mm
01:45 PM 83.0°F28.3°C 1.3°F-17.1°C 0% 3.0 mph S4.8 kmh S 6.0 mph9.7 kmh 29.80 in1009.1 mb 0.06 in1.5 mm 0.00 in0.0 mm 0.06 in1.5 mm
01:50 PM 83.2°F28.4°C 1.3°F-17.1°C 0% 3.0 mph S4.8 kmh S 7.0 mph11.3 kmh 29.80 in1009.1 mb 0.06 in1.5 mm 0.00 in0.0 mm 0.06 in1.5 mm
01:55 PM 83.2°F28.4°C 1.3°F-17.1°C 0% 3.0 mph S4.8 kmh S 9.0 mph14.5 kmh 29.80 in1009.1 mb 0.06 in1.5 mm 0.00 in0.0 mm 0.06 in1.5 mm
02:00 PM 82.6°F28.1°C 1.3°F-17.1°C 0% 6.0 mph S9.7 kmh S 19.0 mph30.6 kmh 29.80 in1009.1 mb 0.05 in1.3 mm 0.00 in0.0 mm 0.07 in1.8 mm
02:05 PM 82.1°F27.8°C 1.3°F-17.1°C 0% 8.0 mph SSE12.9 kmh SSE 19.0 mph30.6 kmh 29.80 in1009.1 mb 0.02 in0.5 mm 0.00 in0.0 mm 0.08 in2.0 mm
02:10 PM 82.3°F27.9°C 1.3°F-17.1°C 0% 6.0 mph S9.7 kmh S 15.0 mph24.1 kmh 29.79 in1008.8 mb 0.02 in0.5 mm 0.00 in0.0 mm 0.08 in2.0 mm
02:15 PM 82.7°F28.2°C 1.3°F-17.1°C 0% 5.0 mph S8.0 kmh S 8.0 mph12.9 kmh 29.79 in1008.8 mb 0.02 in0.5 mm 0.00 in0.0 mm 0.08 in2.0 mm
02:20 PM 83.1°F28.4°C 1.3°F-17.1°C 0% 5.0 mph S8.0 kmh S 11.0 mph17.7 kmh 29.79 in1008.8 mb 0.02 in0.5 mm 0.00 in0.0 mm 0.08 in2.0 mm
02:25 PM 83.1°F28.4°C 1.3°F-17.1°C 0% 5.0 mph S8.0 kmh S 11.0 mph17.7 kmh 29.79 in1008.8 mb 0.02 in0.5 mm 0.00 in0.0 mm 0.08 in2.0 mm
02:30 PM 82.8°F28.2°C 1.3°F-17.1°C 0% 7.0 mph S11.3 kmh S 20.0 mph32.2 kmh 29.79 in1008.8 mb 0.02 in0.5 mm 0.00 in0.0 mm 0.08 in2.0 mm
02:35 PM 82.8°F28.2°C 1.3°F-17.1°C 0% 8.0 mph S12.9 kmh S 20.0 mph32.2 kmh 29.79 in1008.8 mb 0.02 in0.5 mm 0.00 in0.0 mm 0.08 in2.0 mm
02:40 PM 83.4°F28.6°C 1.3°F-17.1°C 0% 8.0 mph S12.9 kmh S 16.0 mph25.7 kmh 29.79 in1008.8 mb 0.02 in0.5 mm 0.00 in0.0 mm 0.08 in2.0 mm
02:45 PM 83.9°F28.8°C 1.3°F-17.1°C 0% 8.0 mph S12.9 kmh S 17.0 mph27.4 kmh 29.78 in1008.5 mb 0.02 in0.5 mm 0.00 in0.0 mm 0.08 in2.0 mm
02:50 PM 84.6°F29.2°C 1.3°F-17.1°C 0% 8.0 mph S12.9 kmh S 17.0 mph27.4 kmh 29.78 in1008.5 mb 0.02 in0.5 mm 0.00 in0.0 mm 0.08 in2.0 mm
02:55 PM 85.2°F29.6°C 1.3°F-17.1°C 0% 8.0 mph S12.9 kmh S 15.0 mph24.1 kmh 29.77 in1008.1 mb 0.02 in0.5 mm 0.00 in0.0 mm 0.08 in2.0 mm
03:00 PM 85.3°F29.6°C 1.3°F-17.1°C 0% 8.0 mph SSE12.9 kmh SSE 18.0 mph29.0 kmh 29.77 in1008.1 mb 0.01 in0.3 mm 0.00 in0.0 mm 0.08 in2.0 mm
03:05 PM 84.9°F29.4°C 1.3°F-17.1°C 0% 10.0 mph S16.1 kmh S 22.0 mph35.4 kmh 29.78 in1008.5 mb 0.00 in0.0 mm 0.00 in0.0 mm 0.08 in2.0 mm
03:10 PM 83.9°F28.8°C 1.3°F-17.1°C 0% 10.0 mph S16.1 kmh S 22.0 mph35.4 kmh 29.77 in1008.1 mb 0.00 in0.0 mm 0.00 in0.0 mm 0.08 in2.0 mm
03:15 PM 83.4°F28.6°C 1.3°F-17.1°C 0% 8.0 mph S12.9 kmh S 15.0 mph24.1 kmh 29.77 in1008.1 mb 0.01 in0.3 mm 0.12 in3.0 mm 0.09 in2.3 mm
03:20 PM 83.6°F28.7°C 1.3°F-17.1°C 0% 5.0 mph S8.0 kmh S 10.0 mph16.1 kmh 29.77 in1008.1 mb 0.01 in0.3 mm 0.00 in0.0 mm 0.09 in2.3 mm
03:25 PM 83.9°F28.8°C 1.3°F-17.1°C 0% 5.0 mph S8.0 kmh S 10.0 mph16.1 kmh 29.77 in1008.1 mb 0.01 in0.3 mm 0.00 in0.0 mm 0.09 in2.3 mm
03:30 PM 84.3°F29.1°C 1.3°F-17.1°C 0% 5.0 mph SSE8.0 kmh SSE 10.0 mph16.1 kmh 29.77 in1008.1 mb 0.01 in0.3 mm 0.00 in0.0 mm 0.09 in2.3 mm
03:35 PM 84.8°F29.3°C 1.3°F-17.1°C 0% 5.0 mph SSE8.0 kmh SSE 9.0 mph14.5 kmh 29.77 in1008.1 mb 0.01 in0.3 mm 0.00 in0.0 mm 0.09 in2.3 mm
03:40 PM 85.1°F29.5°C 1.3°F-17.1°C 0% 5.0 mph SSE8.0 kmh SSE 10.0 mph16.1 kmh 29.77 in1008.1 mb 0.01 in0.3 mm 0.00 in0.0 mm 0.09 in2.3 mm
03:45 PM 85.3°F29.6°C 1.3°F-17.1°C 0% 6.0 mph S9.7 kmh S 14.0 mph22.5 kmh 29.77 in1008.1 mb 0.01 in0.3 mm 0.00 in0.0 mm 0.09 in2.3 mm
03:50 PM 85.7°F29.8°C 1.3°F-17.1°C 0% 6.0 mph S9.7 kmh S 14.0 mph22.5 kmh 29.76 in1007.8 mb 0.01 in0.3 mm 0.00 in0.0 mm 0.09 in2.3 mm
03:55 PM 86.1°F30.1°C 29.5°F-1.4°C 13% 7.0 mph S11.3 kmh S 20.0 mph32.2 kmh 29.76 in1007.8 mb 0.01 in0.3 mm 0.00 in0.0 mm 0.09 in2.3 mm
04:00 PM 86.6°F30.3°C 38.0°F3.3°C 18% 9.0 mph S14.5 kmh S 20.0 mph32.2 kmh 29.76 in1007.8 mb 0.01 in0.3 mm 0.00 in0.0 mm 0.09 in2.3 mm
04:05 PM 87.1°F30.6°C 42.4°F5.8°C 21% 9.0 mph S14.5 kmh S 18.0 mph29.0 kmh 29.76 in1007.8 mb 0.01 in0.3 mm 0.00 in0.0 mm 0.09 in2.3 mm
04:10 PM 87.2°F30.7°C 44.9°F7.2°C 23% 8.0 mph S12.9 kmh S 17.0 mph27.4 kmh 29.76 in1007.8 mb 0.00 in0.0 mm 0.00 in0.0 mm 0.09 in2.3 mm
04:15 PM 87.2°F30.7°C 52.0°F11.1°C 30% 8.0 mph S12.9 kmh S 17.0 mph27.4 kmh 29.76 in1007.8 mb 0.00 in0.0 mm 0.00 in0.0 mm 0.09 in2.3 mm
04:20 PM 86.9°F30.5°C 50.8°F10.4°C 29% 7.0 mph S11.3 kmh S 17.0 mph27.4 kmh 29.77 in1008.1 mb 0.00 in0.0 mm 0.00 in0.0 mm 0.09 in2.3 mm
04:25 PM 86.5°F30.3°C 48.5°F9.2°C 27% 7.0 mph S11.3 kmh S 17.0 mph27.4 kmh 29.76 in1007.8 mb 0.00 in0.0 mm 0.00 in0.0 mm 0.09 in2.3 mm
04:30 PM 86.3°F30.2°C 45.3°F7.4°C 24% 7.0 mph S11.3 kmh S 14.0 mph22.5 kmh 29.77 in1008.1 mb 0.00 in0.0 mm 0.00 in0.0 mm 0.09 in2.3 mm
04:35 PM 86.0°F30.0°C 40.2°F4.6°C 20% 6.0 mph S9.7 kmh S 13.0 mph20.9 kmh 29.77 in1008.1 mb 0.00 in0.0 mm 0.00 in0.0 mm 0.09 in2.3 mm
04:40 PM 85.0°F29.4°C 14.0°F-10.0°C 7% 6.0 mph S9.7 kmh S 13.0 mph20.9 kmh 29.78 in1008.5 mb 0.03 in0.8 mm 0.36 in9.1 mm 0.12 in3.0 mm
04:45 PM 83.4°F28.6°C -4.9°F-20.5°C 0% 6.0 mph SSW9.7 kmh SSW 15.0 mph24.1 kmh 29.77 in1008.1 mb 0.04 in1.0 mm 0.12 in3.0 mm 0.13 in3.3 mm
04:50 PM 82.6°F28.1°C -4.9°F-20.5°C 0% 6.0 mph S9.7 kmh S 15.0 mph24.1 kmh 29.77 in1008.1 mb 0.04 in1.0 mm 0.00 in0.0 mm 0.13 in3.3 mm
04:55 PM 82.2°F27.9°C -4.9°F-20.5°C 0% 4.0 mph SSW6.4 kmh SSW 8.0 mph12.9 kmh 29.77 in1008.1 mb 0.04 in1.0 mm 0.00 in0.0 mm 0.13 in3.3 mm
05:00 PM 81.9°F27.7°C -4.9°F-20.5°C 0% 3.0 mph SSW4.8 kmh SSW 8.0 mph12.9 kmh 29.77 in1008.1 mb 0.04 in1.0 mm 0.00 in0.0 mm 0.13 in3.3 mm
05:05 PM 81.8°F27.7°C -4.9°F-20.5°C 0% 3.0 mph S4.8 kmh S 7.0 mph11.3 kmh 29.77 in1008.1 mb 0.04 in1.0 mm 0.00 in0.0 mm 0.13 in3.3 mm
05:10 PM 81.7°F27.6°C -4.9°F-20.5°C 0% 4.0 mph S6.4 kmh S 8.0 mph12.9 kmh 29.76 in1007.8 mb 0.04 in1.0 mm 0.00 in0.0 mm 0.13 in3.3 mm
05:15 PM 81.7°F27.6°C -4.9°F-20.5°C 0% 4.0 mph S6.4 kmh S 8.0 mph12.9 kmh 29.77 in1008.1 mb 0.04 in1.0 mm 0.00 in0.0 mm 0.13 in3.3 mm
05:20 PM 81.6°F27.6°C -4.9°F-20.5°C 0% 5.0 mph S8.0 kmh S 9.0 mph14.5 kmh 29.77 in1008.1 mb 0.04 in1.0 mm 0.00 in0.0 mm 0.13 in3.3 mm
05:25 PM 81.6°F27.6°C -4.9°F-20.5°C 0% 6.0 mph S9.7 kmh S 11.0 mph17.7 kmh 29.77 in1008.1 mb 0.04 in1.0 mm 0.00 in0.0 mm 0.13 in3.3 mm
05:30 PM 81.7°F27.6°C -4.9°F-20.5°C 0% 6.0 mph S9.7 kmh S 13.0 mph20.9 kmh 29.77 in1008.1 mb 0.04 in1.0 mm 0.00 in0.0 mm 0.13 in3.3 mm
05:35 PM 81.8°F27.7°C -4.9°F-20.5°C 0% 5.0 mph S8.0 kmh S 13.0 mph20.9 kmh 29.77 in1008.1 mb 0.04 in1.0 mm 0.00 in0.0 mm 0.13 in3.3 mm
05:40 PM 81.9°F27.7°C -4.9°F-20.5°C 0% 4.0 mph S6.4 kmh S 9.0 mph14.5 kmh 29.77 in1008.1 mb 0.01 in0.3 mm 0.00 in0.0 mm 0.13 in3.3 mm
05:45 PM 81.9°F27.7°C -4.9°F-20.5°C 0% 3.0 mph S4.8 kmh S 7.0 mph11.3 kmh 29.77 in1008.1 mb 0.00 in0.0 mm 0.00 in0.0 mm 0.13 in3.3 mm
05:50 PM 81.8°F27.7°C -4.9°F-20.5°C 0% 4.0 mph S6.4 kmh S 9.0 mph14.5 kmh 29.77 in1008.1 mb 0.00 in0.0 mm 0.00 in0.0 mm 0.13 in3.3 mm
05:55 PM 81.8°F27.7°C -4.9°F-20.5°C 0% 5.0 mph S8.0 kmh S 11.0 mph17.7 kmh 29.77 in1008.1 mb 0.00 in0.0 mm 0.00 in0.0 mm 0.13 in3.3 mm
06:00 PM 81.9°F27.7°C -4.9°F-20.5°C 0% 6.0 mph S9.7 kmh S 11.0 mph17.7 kmh 29.77 in1008.1 mb 0.00 in0.0 mm 0.00 in0.0 mm 0.13 in3.3 mm
06:05 PM 81.9°F27.7°C -4.9°F-20.5°C 0% 6.0 mph S9.7 kmh S 13.0 mph20.9 kmh 29.77 in1008.1 mb 0.00 in0.0 mm 0.00 in0.0 mm 0.13 in3.3 mm
06:10 PM 81.9°F27.7°C -4.9°F-20.5°C 0% 6.0 mph S9.7 kmh S 13.0 mph20.9 kmh 29.77 in1008.1 mb 0.00 in0.0 mm 0.00 in0.0 mm 0.13 in3.3 mm
06:15 PM 81.9°F27.7°C -4.9°F-20.5°C 0% 7.0 mph S11.3 kmh S 13.0 mph20.9 kmh 29.77 in1008.1 mb 0.00 in0.0 mm 0.00 in0.0 mm 0.13 in3.3 mm
06:20 PM 81.8°F27.7°C -4.9°F-20.5°C 0% 7.0 mph S11.3 kmh S 16.0 mph25.7 kmh 29.77 in1008.1 mb 0.00 in0.0 mm 0.00 in0.0 mm 0.13 in3.3 mm
06:25 PM 81.6°F27.6°C -4.9°F-20.5°C 0% 7.0 mph S11.3 kmh S 16.0 mph25.7 kmh 29.78 in1008.5 mb 0.09 in2.3 mm 1.08 in27.4 mm 0.22 in5.6 mm
06:30 PM 80.9°F27.2°C -4.9°F-20.5°C 0% 7.0 mph S11.3 kmh S 16.0 mph25.7 kmh 29.78 in1008.5 mb 0.11 in2.8 mm 0.24 in6.1 mm 0.24 in6.1 mm
06:35 PM 80.0°F26.7°C -4.9°F-20.5°C 0% 6.0 mph S9.7 kmh S 11.0 mph17.7 kmh 29.78 in1008.5 mb 0.11 in2.8 mm 0.00 in0.0 mm 0.24 in6.1 mm
06:40 PM 79.2°F26.2°C -4.9°F-20.5°C 0% 7.0 mph S11.3 kmh S 11.0 mph17.7 kmh 29.78 in1008.5 mb 0.11 in2.8 mm 0.00 in0.0 mm 0.24 in6.1 mm
06:45 PM 78.8°F26.0°C -4.9°F-20.5°C 0% 7.0 mph S11.3 kmh S 12.0 mph19.3 kmh 29.78 in1008.5 mb 0.11 in2.8 mm 0.00 in0.0 mm 0.24 in6.1 mm
06:50 PM 78.5°F25.8°C -4.9°F-20.5°C 0% 6.0 mph S9.7 kmh S 12.0 mph19.3 kmh 29.78 in1008.5 mb 0.11 in2.8 mm 0.00 in0.0 mm 0.24 in6.1 mm
06:55 PM 78.5°F25.8°C -4.9°F-20.5°C 0% 6.0 mph S9.7 kmh S 10.0 mph16.1 kmh 29.78 in1008.5 mb 0.11 in2.8 mm 0.00 in0.0 mm 0.24 in6.1 mm
07:00 PM 78.4°F25.8°C -4.9°F-20.5°C 0% 4.0 mph S6.4 kmh S 8.0 mph12.9 kmh 29.78 in1008.5 mb 0.11 in2.8 mm 0.00 in0.0 mm 0.24 in6.1 mm
07:05 PM 78.5°F25.8°C -4.9°F-20.5°C 0% 4.0 mph S6.4 kmh S 6.0 mph9.7 kmh 29.78 in1008.5 mb 0.11 in2.8 mm 0.00 in0.0 mm 0.24 in6.1 mm
07:10 PM 78.6°F25.9°C -4.9°F-20.5°C 0% 4.0 mph S6.4 kmh S 6.0 mph9.7 kmh 29.78 in1008.5 mb 0.11 in2.8 mm 0.00 in0.0 mm 0.24 in6.1 mm
07:15 PM 78.7°F25.9°C -4.9°F-20.5°C 0% 4.0 mph S6.4 kmh S 6.0 mph9.7 kmh 29.78 in1008.5 mb 0.11 in2.8 mm 0.00 in0.0 mm 0.24 in6.1 mm
07:20 PM 78.9°F26.1°C -4.9°F-20.5°C 0% 3.0 mph SSE4.8 kmh SSE 6.0 mph9.7 kmh 29.78 in1008.5 mb 0.11 in2.8 mm 0.00 in0.0 mm 0.24 in6.1 mm
07:25 PM 79.1°F26.2°C -4.9°F-20.5°C 0% 4.0 mph SSE6.4 kmh SSE 11.0 mph17.7 kmh 29.78 in1008.5 mb 0.02 in0.5 mm 0.00 in0.0 mm 0.24 in6.1 mm
07:30 PM 79.2°F26.2°C -4.9°F-20.5°C 0% 4.0 mph S6.4 kmh S 11.0 mph17.7 kmh 29.78 in1008.5 mb 0.00 in0.0 mm 0.00 in0.0 mm 0.24 in6.1 mm
07:35 PM 79.3°F26.3°C -4.9°F-20.5°C 0% 3.0 mph S4.8 kmh S 7.0 mph11.3 kmh 29.78 in1008.5 mb 0.00 in0.0 mm 0.00 in0.0 mm 0.24 in6.1 mm
07:40 PM 79.4°F26.3°C -4.9°F-20.5°C 0% 3.0 mph S4.8 kmh S 6.0 mph9.7 kmh 29.78 in1008.5 mb 0.00 in0.0 mm 0.00 in0.0 mm 0.24 in6.1 mm
07:45 PM 79.5°F26.4°C -4.9°F-20.5°C 0% 4.0 mph SSE6.4 kmh SSE 6.0 mph9.7 kmh 29.79 in1008.8 mb 0.00 in0.0 mm 0.00 in0.0 mm 0.24 in6.1 mm
07:50 PM 79.6°F26.4°C -4.9°F-20.5°C 0% 4.0 mph SSE6.4 kmh SSE 8.0 mph12.9 kmh 29.79 in1008.8 mb 0.00 in0.0 mm 0.00 in0.0 mm 0.24 in6.1 mm
07:55 PM 79.7°F26.5°C -4.9°F-20.5°C 0% 4.0 mph S6.4 kmh S 8.0 mph12.9 kmh 29.79 in1008.8 mb 0.00 in0.0 mm 0.00 in0.0 mm 0.24 in6.1 mm
08:00 PM 79.7°F26.5°C -4.9°F-20.5°C 0% 5.0 mph SSE8.0 kmh SSE 7.0 mph11.3 kmh 29.79 in1008.8 mb 0.00 in0.0 mm 0.00 in0.0 mm 0.24 in6.1 mm
08:05 PM 79.8°F26.6°C -4.9°F-20.5°C 0% 5.0 mph SSE8.0 kmh SSE 9.0 mph14.5 kmh 29.79 in1008.8 mb 0.00 in0.0 mm 0.00 in0.0 mm 0.24 in6.1 mm
08:10 PM 79.8°F26.6°C -4.9°F-20.5°C 0% 6.0 mph S9.7 kmh S 11.0 mph17.7 kmh 29.79 in1008.8 mb 0.00 in0.0 mm 0.00 in0.0 mm 0.24 in6.1 mm
08:15 PM 79.9°F26.6°C -4.9°F-20.5°C 0% 6.0 mph S9.7 kmh S 12.0 mph19.3 kmh 29.80 in1009.1 mb 0.00 in0.0 mm 0.00 in0.0 mm 0.24 in6.1 mm
08:20 PM 80.0°F26.7°C -4.9°F-20.5°C 0% 6.0 mph S9.7 kmh S 12.0 mph19.3 kmh 29.80 in1009.1 mb 0.00 in0.0 mm 0.00 in0.0 mm 0.24 in6.1 mm
08:25 PM 80.0°F26.7°C -4.9°F-20.5°C 0% 6.0 mph S9.7 kmh S 12.0 mph19.3 kmh 29.80 in1009.1 mb 0.00 in0.0 mm 0.00 in0.0 mm 0.24 in6.1 mm
08:30 PM 80.1°F26.7°C -4.9°F-20.5°C 0% 6.0 mph S9.7 kmh S 13.0 mph20.9 kmh 29.80 in1009.1 mb 0.00 in0.0 mm 0.00 in0.0 mm 0.24 in6.1 mm
08:35 PM 80.1°F26.7°C -4.9°F-20.5°C 0% 6.0 mph S9.7 kmh S 13.0 mph20.9 kmh 29.80 in1009.1 mb 0.00 in0.0 mm 0.00 in0.0 mm 0.24 in6.1 mm
08:40 PM 80.1°F26.7°C -4.9°F-20.5°C 0% 5.0 mph S8.0 kmh S 8.0 mph12.9 kmh 29.80 in1009.1 mb 0.00 in0.0 mm 0.00 in0.0 mm 0.24 in6.1 mm
08:45 PM 80.0°F26.7°C -4.9°F-20.5°C 0% 5.0 mph S8.0 kmh S 9.0 mph14.5 kmh 29.81 in1009.5 mb 0.00 in0.0 mm 0.00 in0.0 mm 0.24 in6.1 mm
08:50 PM 79.8°F26.6°C -4.9°F-20.5°C 0% 5.0 mph S8.0 kmh S 12.0 mph19.3 kmh 29.81 in1009.5 mb 0.00 in0.0 mm 0.00 in0.0 mm 0.24 in6.1 mm
08:55 PM 79.8°F26.6°C -4.9°F-20.5°C 0% 6.0 mph S9.7 kmh S 13.0 mph20.9 kmh 29.82 in1009.8 mb 0.00 in0.0 mm 0.00 in0.0 mm 0.24 in6.1 mm
09:00 PM 79.8°F26.6°C -4.9°F-20.5°C 0% 6.0 mph S9.7 kmh S 13.0 mph20.9 kmh 29.82 in1009.8 mb 0.00 in0.0 mm 0.00 in0.0 mm 0.24 in6.1 mm
09:05 PM 79.7°F26.5°C -4.9°F-20.5°C 0% 6.0 mph S9.7 kmh S 10.0 mph16.1 kmh 29.82 in1009.8 mb 0.00 in0.0 mm 0.00 in0.0 mm 0.24 in6.1 mm
09:10 PM 79.6°F26.4°C -4.9°F-20.5°C 0% 6.0 mph S9.7 kmh S 11.0 mph17.7 kmh 29.81 in1009.5 mb 0.00 in0.0 mm 0.00 in0.0 mm 0.24 in6.1 mm
09:15 PM 79.4°F26.3°C -4.9°F-20.5°C 0% 5.0 mph SSE8.0 kmh SSE 11.0 mph17.7 kmh 29.82 in1009.8 mb 0.00 in0.0 mm 0.00 in0.0 mm 0.24 in6.1 mm
09:20 PM 79.2°F26.2°C -4.9°F-20.5°C 0% 5.0 mph S8.0 kmh S 11.0 mph17.7 kmh 29.82 in1009.8 mb 0.00 in0.0 mm 0.00 in0.0 mm 0.24 in6.1 mm
09:25 PM 79.0°F26.1°C -4.9°F-20.5°C 0% 6.0 mph S9.7 kmh S 15.0 mph24.1 kmh 29.82 in1009.8 mb 0.00 in0.0 mm 0.00 in0.0 mm 0.24 in6.1 mm
09:30 PM 78.8°F26.0°C -4.9°F-20.5°C 0% 6.0 mph S9.7 kmh S 15.0 mph24.1 kmh 29.82 in1009.8 mb 0.00 in0.0 mm 0.00 in0.0 mm 0.24 in6.1 mm
09:35 PM 78.6°F25.9°C -4.9°F-20.5°C 0% 6.0 mph S9.7 kmh S 13.0 mph20.9 kmh 29.82 in1009.8 mb 0.00 in0.0 mm 0.00 in0.0 mm 0.24 in6.1 mm
09:40 PM 78.5°F25.8°C -4.9°F-20.5°C 0% 6.0 mph S9.7 kmh S 13.0 mph20.9 kmh 29.81 in1009.5 mb 0.00 in0.0 mm 0.00 in0.0 mm 0.24 in6.1 mm
09:45 PM 78.4°F25.8°C -4.9°F-20.5°C 0% 6.0 mph S9.7 kmh S 12.0 mph19.3 kmh 29.82 in1009.8 mb 0.00 in0.0 mm 0.00 in0.0 mm 0.24 in6.1 mm
09:50 PM 78.4°F25.8°C -4.9°F-20.5°C 0% 6.0 mph S9.7 kmh S 12.0 mph19.3 kmh 29.82 in1009.8 mb 0.00 in0.0 mm 0.00 in0.0 mm 0.24 in6.1 mm
09:55 PM 78.4°F25.8°C -4.9°F-20.5°C 0% 7.0 mph S11.3 kmh S 12.0 mph19.3 kmh 29.82 in1009.8 mb 0.00 in0.0 mm 0.00 in0.0 mm 0.24 in6.1 mm
10:00 PM 78.4°F25.8°C -4.9°F-20.5°C 0% 6.0 mph S9.7 kmh S 12.0 mph19.3 kmh 29.82 in1009.8 mb 0.00 in0.0 mm 0.00 in0.0 mm 0.24 in6.1 mm
10:05 PM 78.5°F25.8°C -4.9°F-20.5°C 0% 5.0 mph S8.0 kmh S 10.0 mph16.1 kmh 29.82 in1009.8 mb 0.00 in0.0 mm 0.00 in0.0 mm 0.24 in6.1 mm
10:10 PM 78.5°F25.8°C -4.9°F-20.5°C 0% 6.0 mph S9.7 kmh S 11.0 mph17.7 kmh 29.82 in1009.8 mb 0.00 in0.0 mm 0.00 in0.0 mm 0.24 in6.1 mm
10:15 PM 78.6°F25.9°C -4.9°F-20.5°C 0% 6.0 mph S9.7 kmh S 14.0 mph22.5 kmh 29.83 in1010.2 mb 0.00 in0.0 mm 0.00 in0.0 mm 0.24 in6.1 mm
10:20 PM 78.5°F25.8°C -4.9°F-20.5°C 0% 6.0 mph S9.7 kmh S 14.0 mph22.5 kmh 29.83 in1010.2 mb 0.00 in0.0 mm 0.00 in0.0 mm 0.24 in6.1 mm
10:25 PM 78.4°F25.8°C -4.9°F-20.5°C 0% 6.0 mph S9.7 kmh S 12.0 mph19.3 kmh 29.83 in1010.2 mb 0.00 in0.0 mm 0.00 in0.0 mm 0.24 in6.1 mm
10:30 PM 78.3°F25.7°C -4.9°F-20.5°C 0% 5.0 mph S8.0 kmh S 12.0 mph19.3 kmh 29.83 in1010.2 mb 0.00 in0.0 mm 0.00 in0.0 mm 0.24 in6.1 mm
10:35 PM 78.2°F25.7°C -4.9°F-20.5°C 0% 5.0 mph S8.0 kmh S 12.0 mph19.3 kmh 29.83 in1010.2 mb 0.00 in0.0 mm 0.00 in0.0 mm 0.24 in6.1 mm
10:40 PM 78.2°F25.7°C -4.9°F-20.5°C 0% 6.0 mph S9.7 kmh S 13.0 mph20.9 kmh 29.83 in1010.2 mb 0.00 in0.0 mm 0.00 in0.0 mm 0.24 in6.1 mm
10:45 PM 78.1°F25.6°C -4.9°F-20.5°C 0% 5.0 mph S8.0 kmh S 13.0 mph20.9 kmh 29.83 in1010.2 mb 0.00 in0.0 mm 0.00 in0.0 mm 0.24 in6.1 mm
10:50 PM 78.1°F25.6°C -4.9°F-20.5°C 0% 5.0 mph S8.0 kmh S 11.0 mph17.7 kmh 29.84 in1010.5 mb 0.00 in0.0 mm 0.00 in0.0 mm 0.24 in6.1 mm
10:55 PM 78.1°F25.6°C -4.9°F-20.5°C 0% 5.0 mph S8.0 kmh S 9.0 mph14.5 kmh 29.84 in1010.5 mb 0.00 in0.0 mm 0.00 in0.0 mm 0.24 in6.1 mm
11:00 PM 78.1°F25.6°C -4.9°F-20.5°C 0% 5.0 mph S8.0 kmh S 8.0 mph12.9 kmh 29.84 in1010.5 mb 0.00 in0.0 mm 0.00 in0.0 mm 0.24 in6.1 mm
11:05 PM 78.2°F25.7°C -4.9°F-20.5°C 0% 5.0 mph S8.0 kmh S 9.0 mph14.5 kmh 29.84 in1010.5 mb 0.00 in0.0 mm 0.00 in0.0 mm 0.24 in6.1 mm
11:10 PM 78.3°F25.7°C -4.9°F-20.5°C 0% 6.0 mph S9.7 kmh S 9.0 mph14.5 kmh 29.84 in1010.5 mb 0.00 in0.0 mm 0.00 in0.0 mm 0.24 in6.1 mm
11:15 PM 78.4°F25.8°C -4.9°F-20.5°C 0% 6.0 mph S9.7 kmh S 9.0 mph14.5 kmh 29.84 in1010.5 mb 0.00 in0.0 mm 0.00 in0.0 mm 0.24 in6.1 mm
11:20 PM 78.5°F25.8°C -4.9°F-20.5°C 0% 5.0 mph S8.0 kmh S 10.0 mph16.1 kmh 29.84 in1010.5 mb 0.00 in0.0 mm 0.00 in0.0 mm 0.24 in6.1 mm
11:25 PM 78.7°F25.9°C -4.9°F-20.5°C 0% 5.0 mph S8.0 kmh S 10.0 mph16.1 kmh 29.84 in1010.5 mb 0.00 in0.0 mm 0.00 in0.0 mm 0.24 in6.1 mm
11:30 PM 78.7°F25.9°C -4.9°F-20.5°C 0% 4.0 mph S6.4 kmh S 8.0 mph12.9 kmh 29.84 in1010.5 mb 0.00 in0.0 mm 0.00 in0.0 mm 0.24 in6.1 mm
11:35 PM 78.8°F26.0°C -4.9°F-20.5°C 0% 4.0 mph S6.4 kmh S 8.0 mph12.9 kmh 29.84 in1010.5 mb 0.00 in0.0 mm 0.00 in0.0 mm 0.24 in6.1 mm
11:40 PM 78.9°F26.1°C -4.9°F-20.5°C 0% 4.0 mph S6.4 kmh S 8.0 mph12.9 kmh 29.84 in1010.5 mb 0.00 in0.0 mm 0.00 in0.0 mm 0.24 in6.1 mm
11:45 PM 78.9°F26.1°C -4.9°F-20.5°C 0% 5.0 mph S8.0 kmh S 10.0 mph16.1 kmh 29.84 in1010.5 mb 0.00 in0.0 mm 0.00 in0.0 mm 0.24 in6.1 mm
11:50 PM 78.9°F26.1°C -4.9°F-20.5°C 0% 5.0 mph S8.0 kmh S 10.0 mph16.1 kmh 29.84 in1010.5 mb 0.00 in0.0 mm 0.00 in0.0 mm 0.24 in6.1 mm
11:55 PM 79.0°F26.1°C -4.9°F-20.5°C 0% 5.0 mph S8.0 kmh S 9.0 mph14.5 kmh 29.84 in1010.5 mb 0.00 in0.0 mm 0.00 in0.0 mm 0.24 in6.1 mm